Time;durP1;ratioP1;P1;durP2;ratioP2;P2;SDS_P1;SDS_P2;PMS_P1;PMS_P2;Temp;Humidity;BMP_temperature;BMP_pressure;BME280_temperature;BME280_humidity;BME280_pressure;Samples;Min_cycle;Max_cycle;Signal;HPM_P1;HPM_P2
2022/01/05 00:00:41;;;;;;;;;;;;;;;-15.74;66.55;95983.50;6373021;27;19924;-63
2022/01/05 00:03:43;;;;;;;;;;;;;;;-15.70;66.47;95984.47;6373091;27;19927;-63
2022/01/05 00:06:44;;;;;;;;;;;;;;;-15.72;66.41;95991.13;6373218;27;20052;-63
2022/01/05 00:09:45;;;;;;;;;;;;;;;-15.58;66.35;95983.84;6372965;27;19923;-64
2022/01/05 00:12:46;;;;;;;;;;;;;;;-15.53;65.22;95997.41;6373638;27;19923;-62
2022/01/05 00:15:47;;;;;;;;;;;;;;;-15.77;65.19;95992.69;6372720;27;19943;-62
2022/01/05 00:18:48;;;;;;;;;;;;;;;-15.97;65.59;96003.16;6372057;27;20010;-62
2022/01/05 00:21:53;;;;;;;;;;;;;;;-16.25;65.74;96004.19;6373329;27;19923;-63
2022/01/05 00:24:57;;;;;;;;;;;;;;;-16.52;66.09;96001.84;6373529;27;19924;-63
2022/01/05 00:27:58;;;;;;;;;;;;;;;-16.47;66.62;96007.84;6372826;27;19926;-62
2022/01/05 00:30:59;;;;;;;;;;;;;;;-16.53;66.83;96002.66;6372635;27;19930;-63
2022/01/05 00:34:02;;;;;;;;;;;;;;;-16.30;66.66;95999.03;6372199;27;19943;-62
2022/01/05 00:37:03;;;;;;;;;;;;;;;-16.60;66.67;96006.69;6371932;27;20307;-64
2022/01/05 00:40:05;;;;;;;;;;;;;;;-16.80;67.03;96007.88;6371905;27;20029;-63
2022/01/05 00:43:06;;;;;;;;;;;;;;;-16.99;67.13;96009.03;6372752;27;19997;-63
2022/01/05 00:46:09;;;;;;;;;;;;;;;-17.11;67.69;96008.72;6373061;27;19937;-62
2022/01/05 00:49:11;;;;;;;;;;;;;;;-17.24;67.92;96005.84;6372107;27;19923;-64
2022/01/05 00:52:14;;;;;;;;;;;;;;;-17.28;68.05;96009.09;6372792;27;19930;-63
2022/01/05 00:55:17;;;;;;;;;;;;;;;-17.34;68.17;96006.41;6372785;27;19923;-64
2022/01/05 00:58:21;;;;;;;;;;;;;;;-17.36;68.51;96018.06;6372017;27;19930;-63
2022/01/05 01:01:24;;;;;;;;;;;;;;;-17.40;68.41;96023.84;6371299;27;19930;-62
2022/01/05 01:04:25;;;;;;;;;;;;;;;-17.51;68.53;96015.13;6372366;27;19923;-63
2022/01/05 01:07:26;;;;;;;;;;;;;;;-17.63;68.67;96014.75;6371882;27;20285;-64
2022/01/05 01:10:27;;;;;;;;;;;;;;;-17.78;68.73;96018.56;6371602;27;20303;-62
2022/01/05 01:13:28;;;;;;;;;;;;;;;-17.93;68.89;96026.50;6372220;27;19923;-62
2022/01/05 01:16:31;;;;;;;;;;;;;;;-18.04;68.84;96021.94;6371794;27;19919;-63
2022/01/05 01:19:32;;;;;;;;;;;;;;;-18.15;68.58;96032.50;6372345;27;20304;-62
2022/01/05 01:22:35;;;;;;;;;;;;;;;-18.25;68.49;96029.66;6371454;27;20304;-62
2022/01/05 01:25:36;;;;;;;;;;;;;;;-18.32;67.95;96036.13;6371494;27;19967;-63
2022/01/05 01:28:37;;;;;;;;;;;;;;;-18.38;67.77;96030.91;6371398;27;19923;-64
2022/01/05 01:31:38;;;;;;;;;;;;;;;-18.43;67.90;96042.47;6371398;27;19923;-62
2022/01/05 01:34:39;;;;;;;;;;;;;;;-18.50;67.55;96030.53;6371371;27;19923;-63
2022/01/05 01:37:40;;;;;;;;;;;;;;;-18.54;67.70;96048.78;6372006;27;19923;-63
2022/01/05 01:40:41;;;;;;;;;;;;;;;-18.61;67.79;96038.53;6370561;27;19923;-63
2022/01/05 01:43:45;;;;;;;;;;;;;;;-18.72;67.63;96044.84;6371850;27;19924;-63
2022/01/05 01:46:48;;;;;;;;;;;;;;;-18.81;67.75;96054.63;6372050;27;19923;-63
2022/01/05 01:49:49;;;;;;;;;;;;;;;-18.95;67.50;96045.75;6370916;28;19934;-63
2022/01/05 01:52:52;;;;;;;;;;;;;;;-19.00;67.51;96052.25;6371684;28;19923;-62
2022/01/05 01:55:54;;;;;;;;;;;;;;;-19.09;68.28;96057.81;6352986;28;20368;-63
2022/01/05 01:58:55;;;;;;;;;;;;;;;-19.18;68.06;96063.34;6371091;28;19923;-63
2022/01/05 02:01:56;;;;;;;;;;;;;;;-19.26;67.88;96069.75;6371285;28;19919;-62
2022/01/05 02:04:57;;;;;;;;;;;;;;;-19.33;68.10;96076.19;6371377;28;20411;-63
2022/01/05 02:07:59;;;;;;;;;;;;;;;-19.40;67.55;96080.91;6371642;28;19938;-64
2022/01/05 02:11:01;;;;;;;;;;;;;;;-19.50;67.83;96085.59;6371654;28;19924;-63
2022/01/05 02:14:02;;;;;;;;;;;;;;;-19.56;67.51;96080.31;6370868;28;19924;-63
2022/01/05 02:17:08;;;;;;;;;;;;;;;-19.61;66.78;96086.84;6370522;28;20419;-63
2022/01/05 02:20:18;;;;;;;;;;;;;;;-19.65;66.56;96090.03;6370933;28;20081;-63
2022/01/05 02:23:19;;;;;;;;;;;;;;;-19.74;67.24;96089.69;6370872;28;20040;-63
2022/01/05 02:26:20;;;;;;;;;;;;;;;-19.81;66.50;96092.75;6371427;28;19923;-63
2022/01/05 02:29:22;;;;;;;;;;;;;;;-19.85;66.58;96095.94;6371364;28;19930;-63
2022/01/05 02:32:25;;;;;;;;;;;;;;;-19.95;67.26;96100.59;6371296;28;19931;-63
2022/01/05 02:35:26;;;;;;;;;;;;;;;-20.01;66.54;96105.38;6371237;28;19923;-63
2022/01/05 02:38:27;;;;;;;;;;;;;;;-20.10;65.32;96099.13;6371286;28;19923;-63
2022/01/05 02:41:28;;;;;;;;;;;;;;;-20.18;65.58;96097.19;6371600;27;19931;-63
2022/01/05 02:44:29;;;;;;;;;;;;;;;-20.25;66.69;96109.38;6375928;27;19927;-63
2022/01/05 02:47:30;;;;;;;;;;;;;;;-20.33;66.16;96111.56;6375356;27;19968;-63
2022/01/05 02:50:31;;;;;;;;;;;;;;;-20.37;66.55;96109.75;6375828;27;20475;-62
2022/01/05 02:53:33;;;;;;;;;;;;;;;-20.40;67.01;96115.47;6375723;27;19930;-63
2022/01/05 02:56:39;;;;;;;;;;;;;;;-20.44;66.55;96113.63;6374670;27;19926;-62
2022/01/05 02:59:40;;;;;;;;;;;;;;;-20.49;66.15;96115.09;6375637;27;20787;-63
2022/01/05 03:02:43;;;;;;;;;;;;;;;-20.50;66.42;96120.88;6375798;27;19969;-63
2022/01/05 03:05:44;;;;;;;;;;;;;;;-20.52;66.43;96124.13;6374661;27;19941;-63
2022/01/05 03:08:45;;;;;;;;;;;;;;;-20.54;66.31;96134.09;6374695;27;19930;-63
2022/01/05 03:11:49;;;;;;;;;;;;;;;-20.62;66.33;96138.75;6375505;27;20010;-63
2022/01/05 03:14:50;;;;;;;;;;;;;;;-20.67;65.96;96136.84;6374754;27;20457;-63
2022/01/05 03:17:51;;;;;;;;;;;;;;;-20.77;65.92;96132.25;6375125;27;20341;-63
2022/01/05 03:20:52;;;;;;;;;;;;;;;-20.77;65.76;96143.13;6375044;27;19923;-63
2022/01/05 03:23:53;;;;;;;;;;;;;;;-20.79;66.42;96139.69;6373969;27;19930;-63
2022/01/05 03:26:56;;;;;;;;;;;;;;;-20.85;66.45;96140.28;6374548;27;19923;-62
2022/01/05 03:29:57;;;;;;;;;;;;;;;-20.91;66.34;96150.03;6374090;27;20431;-63
2022/01/05 03:36:05;;;;;;;;;;;;;;;-20.92;65.53;96158.28;6374615;27;19923;-63
2022/01/05 03:39:06;;;;;;;;;;;;;;;-20.93;65.41;96160.75;6373923;27;19924;-63
2022/01/05 03:42:07;;;;;;;;;;;;;;;-20.97;65.20;96164.75;6374136;27;19923;-63
2022/01/05 03:45:08;;;;;;;;;;;;;;;-21.00;64.65;96164.63;6355872;27;20014;-63
2022/01/05 03:48:10;;;;;;;;;;;;;;;-21.03;63.99;96159.47;6373608;27;19931;-63
2022/01/05 03:51:12;;;;;;;;;;;;;;;-21.04;64.34;96165.25;6373385;27;20411;-63
2022/01/05 03:54:15;;;;;;;;;;;;;;;-21.07;65.21;96173.47;6373399;27;19923;-63
2022/01/05 03:57:18;;;;;;;;;;;;;;;-21.09;63.96;96174.19;6373388;27;19931;-63
2022/01/05 04:00:24;;;;;;;;;;;;;;;-21.05;65.27;96178.56;6374147;27;20345;-62
2022/01/05 04:03:27;;;;;;;;;;;;;;;-21.07;64.94;96185.13;6374171;27;19924;-62
2022/01/05 04:06:28;;;;;;;;;;;;;;;-21.08;65.17;96185.91;6373129;27;19930;-62
2022/01/05 04:09:30;;;;;;;;;;;;;;;-21.06;64.93;96189.31;6373238;27;19927;-62
2022/01/05 04:12:34;;;;;;;;;;;;;;;-20.99;64.39;96191.31;6373063;27;20307;-63
2022/01/05 04:15:35;;;;;;;;;;;;;;;-20.96;64.89;96195.59;6373577;27;19924;-63
2022/01/05 04:18:36;;;;;;;;;;;;;;;-20.96;65.33;96203.94;6372982;27;19924;-62
2022/01/05 04:21:37;;;;;;;;;;;;;;;-20.95;64.90;96210.66;6372712;27;20392;-63
2022/01/05 04:24:38;;;;;;;;;;;;;;;-20.94;65.16;96214.88;6373556;27;19930;-63
2022/01/05 04:27:39;;;;;;;;;;;;;;;-20.96;65.13;96215.59;6373447;27;20022;-63
2022/01/05 04:30:43;;;;;;;;;;;;;;;-20.93;64.24;96220.72;6373398;27;19958;-62
2022/01/05 04:33:49;;;;;;;;;;;;;;;-20.88;63.14;96217.66;6373121;27;19923;-63
2022/01/05 04:36:50;;;;;;;;;;;;;;;-20.81;63.15;96218.75;6373022;27;19934;-63
2022/01/05 04:39:52;;;;;;;;;;;;;;;-20.72;63.61;96225.81;6373418;27;19924;-64
2022/01/05 04:42:53;;;;;;;;;;;;;;;-20.66;62.29;96231.06;6372920;27;19924;-62
2022/01/05 04:45:57;;;;;;;;;;;;;;;-20.58;63.03;96234.78;6372785;27;19931;-63
2022/01/05 04:48:58;;;;;;;;;;;;;;;-20.52;62.97;96235.00;6372585;27;20308;-62
2022/01/05 04:51:59;;;;;;;;;;;;;;;-20.50;62.85;96228.44;6372138;27;19924;-62
2022/01/05 04:55:03;;;;;;;;;;;;;;;-20.43;63.46;96230.41;6372633;27;19919;-63
2022/01/05 04:58:06;;;;;;;;;;;;;;;-20.37;62.59;96231.47;6372023;27;19923;-63
2022/01/05 05:01:09;;;;;;;;;;;;;;;-20.27;62.62;96246.06;6372473;27;19923;-63
2022/01/05 05:04:13;;;;;;;;;;;;;;;-20.22;61.58;96239.63;6372446;27;19919;-63
2022/01/05 05:07:14;;;;;;;;;;;;;;;-20.16;62.23;96240.72;6372317;27;19959;-63
2022/01/05 05:10:19;;;;;;;;;;;;;;;-20.13;62.57;96247.53;6371853;27;19935;-63
2022/01/05 05:13:19;;;;;;;;;;;;;;;-20.08;63.00;96238.56;6372022;27;19931;-63
2022/01/05 05:16:21;;;;;;;;;;;;;;;-20.01;62.83;96240.53;6371542;27;19927;-63
2022/01/05 05:19:21;;;;;;;;;;;;;;;-19.95;62.23;96239.94;6372123;27;20011;-63
2022/01/05 05:22:23;;;;;;;;;;;;;;;-19.89;61.66;96246.84;6371412;27;20018;-62
2022/01/05 05:25:24;;;;;;;;;;;;;;;-19.82;62.67;96252.16;6371211;27;20018;-64
2022/01/05 05:28:25;;;;;;;;;;;;;;;-19.84;62.78;96243.75;6370741;27;19919;-65
2022/01/05 05:31:28;;;;;;;;;;;;;;;-19.82;63.18;96246.31;6371715;27;20025;-62
2022/01/05 05:34:29;;;;;;;;;;;;;;;-19.75;63.65;96250.78;6371340;27;19923;-63
2022/01/05 05:37:30;;;;;;;;;;;;;;;-19.56;63.47;96258.19;6371192;27;19923;-63
2022/01/05 05:40:31;;;;;;;;;;;;;;;-19.41;63.15;96264.66;6370940;27;19923;-63
2022/01/05 05:43:34;;;;;;;;;;;;;;;-19.29;63.72;96270.13;6372063;27;19923;-63
2022/01/05 05:46:38;;;;;;;;;;;;;;;-19.15;62.90;96266.50;6370907;27;20021;-62
2022/01/05 05:49:39;;;;;;;;;;;;;;;-18.83;62.97;96269.41;6370963;28;20396;-63
2022/01/05 05:52:43;;;;;;;;;;;;;;;-18.59;62.77;96280.34;6371566;28;20004;-64
2022/01/05 05:55:45;;;;;;;;;;;;;;;-18.38;62.05;96272.72;6371408;28;19923;-63
2022/01/05 05:58:49;;;;;;;;;;;;;;;-18.09;61.80;96269.56;6371639;28;19927;-63
2022/01/05 06:01:53;;;;;;;;;;;;;;;-17.78;61.53;96277.34;6371488;28;19931;-63
2022/01/05 06:04:57;;;;;;;;;;;;;;;-17.52;61.77;96284.88;6371472;28;19924;-64
2022/01/05 06:07:58;;;;;;;;;;;;;;;-17.31;61.80;96287.25;6371487;28;19926;-63
2022/01/05 06:11:02;;;;;;;;;;;;;;;-17.13;61.22;96290.34;6371052;28;19924;-65
2022/01/05 06:14:03;;;;;;;;;;;;;;;-16.91;61.13;96291.91;6371225;28;19923;-63
2022/01/05 06:17:06;;;;;;;;;;;;;;;-16.74;60.90;96294.91;6354965;27;19923;-63
2022/01/05 06:20:09;;;;;;;;;;;;;;;-16.61;60.92;96302.03;6375370;27;19924;-63
2022/01/05 06:23:13;;;;;;;;;;;;;;;-16.55;60.93;96311.44;6375518;27;20316;-64
2022/01/05 06:26:14;;;;;;;;;;;;;;;-16.45;60.88;96303.34;6376192;27;19924;-63
2022/01/05 06:29:17;;;;;;;;;;;;;;;-16.31;60.92;96309.63;6375962;27;19960;-64
2022/01/05 06:32:19;;;;;;;;;;;;;;;-16.11;60.89;96310.22;6375567;27;19923;-64
2022/01/05 06:35:24;;;;;;;;;;;;;;;-15.93;60.86;96309.03;6375349;27;19927;-63
2022/01/05 06:38:27;;;;;;;;;;;;;;;-15.69;60.80;96303.81;6376048;27;19923;-63
2022/01/05 06:41:28;;;;;;;;;;;;;;;-15.41;60.52;96306.22;6375370;27;19919;-63
2022/01/05 06:44:35;;;;;;;;;;;;;;;-15.18;60.45;96305.94;6376111;27;19923;-63
2022/01/05 06:47:36;;;;;;;;;;;;;;;-15.01;60.27;96317.31;6376001;27;19919;-63
2022/01/05 06:50:39;;;;;;;;;;;;;;;-14.80;59.46;96313.59;6375692;27;19923;-63
2022/01/05 06:53:40;;;;;;;;;;;;;;;-14.63;58.82;96324.97;6375720;27;19923;-63
2022/01/05 06:56:46;;;;;;;;;;;;;;;-14.45;58.19;96319.44;6375801;27;19924;-64
2022/01/05 06:59:50;;;;;;;;;;;;;;;-14.26;57.05;96324.09;6376183;27;19923;-63
2022/01/05 07:02:51;;;;;;;;;;;;;;;-14.03;57.42;96327.13;6375730;27;19930;-63
2022/01/05 07:05:52;;;;;;;;;;;;;;;-13.85;55.31;96318.22;6356865;27;19923;-63
2022/01/05 07:08:53;;;;;;;;;;;;;;;-13.73;53.09;96326.03;6374869;27;20304;-64
2022/01/05 07:11:54;;;;;;;;;;;;;;;-13.53;54.36;96325.59;6374671;27;19930;-63
2022/01/05 07:14:55;;;;;;;;;;;;;;;-13.38;54.79;96330.94;6374477;27;19924;-63
2022/01/05 07:17:57;;;;;;;;;;;;;;;-13.28;53.61;96327.75;6374514;27;20397;-63
2022/01/05 07:20:58;;;;;;;;;;;;;;;-13.19;53.72;96330.44;6374192;27;19930;-63
2022/01/05 07:24:04;;;;;;;;;;;;;;;-13.06;53.86;96328.13;6375187;27;20017;-62
2022/01/05 07:27:05;;;;;;;;;;;;;;;-11.06;53.06;96332.59;6374131;27;19967;-63
2022/01/05 07:30:06;;;;;;;;;;;;;;;-7.05;46.84;96331.91;6372886;27;19924;-63
2022/01/05 07:33:07;;;;;;;;;;;;;;;-3.65;40.42;96338.34;6374873;27;20286;-64
2022/01/05 07:36:11;;;;;;;;;;;;;;;-0.97;33.36;96344.25;6374691;27;19919;-64
2022/01/05 07:39:15;;;;;;;;;;;;;;;1.10;29.79;96336.81;6374362;27;19929;-63
2022/01/05 07:42:18;;;;;;;;;;;;;;;2.76;24.07;96344.16;6374303;27;19923;-63
2022/01/05 07:45:24;;;;;;;;;;;;;;;3.91;23.62;96343.41;6374427;27;20299;-64
2022/01/05 07:48:27;;;;;;;;;;;;;;;4.86;22.71;96344.81;6374535;27;20280;-64
2022/01/05 07:51:29;;;;;;;;;;;;;;;5.61;23.39;96347.91;6373402;27;19923;-64
2022/01/05 07:54:32;;;;;;;;;;;;;;;6.48;22.76;96347.47;6373321;27;19976;-64
2022/01/05 07:57:36;;;;;;;;;;;;;;;7.39;19.34;96343.84;6374228;27;19923;-65
2022/01/05 08:00:39;;;;;;;;;;;;;;;8.05;19.82;96339.75;6374182;27;19924;-67
2022/01/05 08:03:40;;;;;;;;;;;;;;;8.57;20.75;96346.09;6373319;27;19924;-68
2022/01/05 08:06:41;;;;;;;;;;;;;;;8.99;25.98;96347.66;6371871;27;19945;-67
2022/01/05 08:09:44;;;;;;;;;;;;;;;9.51;19.38;96347.69;6372768;27;20051;-67
2022/01/05 08:12:48;;;;;;;;;;;;;;;10.05;18.45;96358.75;6355906;27;19923;-66
2022/01/05 08:15:49;;;;;;;;;;;;;;;10.24;24.32;96353.00;6355320;27;19923;-67
2022/01/05 08:18:52;;;;;;;;;;;;;;;10.41;16.32;96348.38;6373746;27;20393;-66
2022/01/05 08:21:53;;;;;;;;;;;;;;;10.71;19.21;96350.56;6373049;27;20001;-64
2022/01/05 08:24:57;;;;;;;;;;;;;;;10.90;15.96;96350.88;6372290;27;19984;-64
2022/01/05 08:28:01;;;;;;;;;;;;;;;11.00;22.27;96346.59;6373071;27;20633;-64
2022/01/05 08:31:05;;;;;;;;;;;;;;;11.07;17.99;96352.25;6354572;27;19931;-65
2022/01/05 08:34:11;;;;;;;;;;;;;;;11.26;17.94;96350.84;6373256;27;19946;-64
2022/01/05 08:37:15;;;;;;;;;;;;;;;11.45;19.79;96357.22;6372591;27;19923;-64
2022/01/05 08:40:20;;;;;;;;;;;;;;;11.41;17.75;96354.97;6371517;27;19927;-64
2022/01/05 08:43:24;;;;;;;;;;;;;;;11.63;15.75;96348.84;6372909;27;20308;-66
2022/01/05 08:46:25;;;;;;;;;;;;;;;12.43;15.37;96347.88;6353663;27;19929;-66
2022/01/05 08:49:26;;;;;;;;;;;;;;;13.10;14.49;96352.88;6372451;27;20300;-64
2022/01/05 08:52:27;;;;;;;;;;;;;;;13.50;14.99;96356.66;6372398;27;19923;-65
2022/01/05 08:55:30;;;;;;;;;;;;;;;13.34;16.27;96349.22;6372422;27;19923;-65
2022/01/05 08:58:31;;;;;;;;;;;;;;;13.09;18.32;96355.69;6371626;27;20432;-65
2022/01/05 09:01:35;;;;;;;;;;;;;;;12.80;20.62;96361.56;6372021;27;20297;-64
2022/01/05 09:04:36;;;;;;;;;;;;;;;12.11;17.31;96356.56;6372585;27;19924;-64
2022/01/05 09:07:37;;;;;;;;;;;;;;;11.84;17.26;96354.28;6372435;27;19929;-65
2022/01/05 09:10:38;;;;;;;;;;;;;;;10.15;19.36;96353.69;6372030;27;20389;-65
2022/01/05 09:13:39;;;;;;;;;;;;;;;8.31;19.21;96350.38;6371346;27;19924;-65
2022/01/05 09:16:40;;;;;;;;;;;;;;;7.56;20.28;96350.69;6371565;27;19972;-64
2022/01/05 09:19:42;;;;;;;;;;;;;;;6.20;19.65;96346.44;6372359;27;19928;-65
2022/01/05 09:22:43;;;;;;;;;;;;;;;4.53;23.14;96339.53;6371689;27;19924;-66
2022/01/05 09:25:44;;;;;;;;;;;;;;;3.13;25.71;96352.97;6371292;27;20428;-67
2022/01/05 09:28:49;;;;;;;;;;;;;;;3.05;24.51;96349.84;6371285;27;19923;-66
2022/01/05 09:31:53;;;;;;;;;;;;;;;3.58;27.64;96346.63;6371908;27;20384;-66
2022/01/05 09:34:58;;;;;;;;;;;;;;;4.35;22.68;96346.47;6353002;27;19989;-67
2022/01/05 09:44:35;;;;;;;;;;;;;;;6.10;20.52;96360.91;6371430;27;19970;-67
2022/01/05 09:47:54;;;;;;;;;;;;;;;5.33;20.81;96351.13;6371816;27;20292;-67
2022/01/05 09:51:01;;;;;;;;;;;;;;;3.82;20.68;96352.44;6370771;27;19923;-66
2022/01/05 09:54:04;;;;;;;;;;;;;;;2.58;25.86;96353.56;6371938;28;20417;-66
2022/01/05 09:57:09;;;;;;;;;;;;;;;1.60;24.16;96352.25;6370943;28;20335;-64
2022/01/05 10:00:15;;;;;;;;;;;;;;;0.85;26.53;96353.25;6371322;28;19923;-65
2022/01/05 10:03:16;;;;;;;;;;;;;;;0.18;25.67;96352.91;6371509;28;19923;-65
2022/01/05 10:06:17;;;;;;;;;;;;;;;-0.17;29.79;96351.41;6369700;28;19933;-64
2022/01/05 10:09:19;;;;;;;;;;;;;;;0.01;30.17;96360.38;6370708;28;19930;-65
2022/01/05 10:12:24;;;;;;;;;;;;;;;0.28;26.66;96354.28;6371230;28;19924;-65
2022/01/05 10:15:28;;;;;;;;;;;;;;;0.14;26.37;96362.53;6371304;28;19923;-65
2022/01/05 10:18:38;;;;;;;;;;;;;;;-1.11;26.65;96361.03;6352491;28;20396;-63
2022/01/05 10:21:39;;;;;;;;;;;;;;;-2.67;28.29;96355.34;6343757;28;19935;-63
2022/01/05 10:24:43;;;;;;;;;;;;;;;-3.91;33.17;96355.91;6345627;28;20010;-62
2022/01/05 10:27:54;;;;;;;;;;;;;;;-5.01;33.53;96369.47;6344673;28;19927;-62
2022/01/05 10:30:58;;;;;;;;;;;;;;;-6.05;34.52;96373.09;6344948;28;19969;-62
2022/01/05 10:34:12;;;;;;;;;;;;;;;-6.81;36.16;96375.28;6345533;28;19924;-63
2022/01/05 10:37:13;;;;;;;;;;;;;;;-7.53;36.50;96374.69;6345353;28;20286;-63
2022/01/05 10:40:22;;;;;;;;;;;;;;;-8.23;37.03;96380.75;6344938;28;20348;-63
2022/01/05 10:43:23;;;;;;;;;;;;;;;-8.88;39.72;96393.41;6345339;28;19931;-63
2022/01/05 10:46:34;;;;;;;;;;;;;;;-9.46;40.14;96389.75;6345276;28;19928;-62
2022/01/05 10:49:39;;;;;;;;;;;;;;;-9.92;40.69;96390.31;6344943;28;19923;-62
2022/01/05 10:52:50;;;;;;;;;;;;;;;-10.29;40.94;96394.31;6344603;28;20018;-62
2022/01/05 10:55:52;;;;;;;;;;;;;;;-10.66;41.11;96393.97;6344809;28;19935;-63
2022/01/05 10:58:55;;;;;;;;;;;;;;;-10.88;41.27;96398.81;6344468;28;19930;-63
2022/01/05 11:01:56;;;;;;;;;;;;;;;-11.15;41.65;96398.50;6345054;28;19924;-62
2022/01/05 11:05:09;;;;;;;;;;;;;;;-11.47;41.96;96401.50;6349333;28;19923;-63
2022/01/05 11:08:12;;;;;;;;;;;;;;;-11.81;41.83;96406.13;6349540;28;19920;-62
2022/01/05 11:11:31;;;;;;;;;;;;;;;-12.16;42.09;96407.34;6349666;28;20343;-62
2022/01/05 11:14:37;;;;;;;;;;;;;;;-12.56;43.20;96407.53;6348303;28;19928;-62
2022/01/05 11:17:40;;;;;;;;;;;;;;;-12.80;43.32;96413.00;6349445;28;19923;-63
2022/01/05 11:20:50;;;;;;;;;;;;;;;-12.98;44.21;96420.28;6348034;28;20301;-64
2022/01/05 11:23:54;;;;;;;;;;;;;;;-13.22;44.55;96418.97;6349272;28;19924;-64
2022/01/05 11:26:57;;;;;;;;;;;;;;;-13.44;44.41;96437.13;6349101;27;19924;-63
2022/01/05 11:29:58;;;;;;;;;;;;;;;-13.69;45.70;96436.59;6348919;28;19923;-64
2022/01/05 11:33:05;;;;;;;;;;;;;;;-13.92;45.00;96443.69;6348025;28;20372;-64
2022/01/05 11:36:06;;;;;;;;;;;;;;;-14.16;46.94;96438.88;6349079;28;19924;-64
2022/01/05 11:39:07;;;;;;;;;;;;;;;-14.34;46.45;96433.41;6348879;28;19923;-63
2022/01/05 11:42:13;;;;;;;;;;;;;;;-14.58;46.23;96438.72;6348938;28;20064;-63
2022/01/05 11:45:47;;;;;;;;;;;;;;;-14.82;45.99;96437.28;6347452;28;19923;-63
2022/01/05 11:48:58;;;;;;;;;;;;;;;-15.12;46.25;96439.00;6332759;28;19931;-63
2022/01/05 11:52:00;;;;;;;;;;;;;;;-15.38;46.65;96431.56;6348813;28;20385;-63
2022/01/05 11:55:03;;;;;;;;;;;;;;;-15.61;47.64;96438.50;6348229;28;19969;-64
2022/01/05 11:58:15;;;;;;;;;;;;;;;-15.78;47.32;96452.31;6348223;28;19930;-62
2022/01/05 12:01:19;;;;;;;;;;;;;;;-15.98;47.85;96447.50;6348213;28;20019;-63
2022/01/05 12:04:22;;;;;;;;;;;;;;;-16.15;48.52;96453.69;6347524;27;19936;-64
2022/01/05 12:07:44;;;;;;;;;;;;;;;-16.27;48.49;96463.38;6348175;28;20022;-62
2022/01/05 12:10:51;;;;;;;;;;;;;;;-16.42;49.71;96463.75;6347477;28;19931;-64
2022/01/05 12:13:52;;;;;;;;;;;;;;;-16.50;49.38;96465.16;6347956;28;19923;-63
2022/01/05 12:16:59;;;;;;;;;;;;;;;-16.60;49.57;96469.91;6347098;28;19926;-63
2022/01/05 12:20:02;;;;;;;;;;;;;;;-16.68;50.51;96462.91;6350824;27;19947;-63
2022/01/05 12:23:18;;;;;;;;;;;;;;;-16.78;48.19;96457.59;6373601;27;19931;-64
2022/01/05 12:26:22;;;;;;;;;;;;;;;-16.98;48.82;96463.63;6372149;27;20304;-63
2022/01/05 12:29:30;;;;;;;;;;;;;;;-17.11;49.62;96481.59;6354791;27;19930;-64
2022/01/05 12:32:35;;;;;;;;;;;;;;;-17.22;50.59;96482.06;6371853;27;20461;-63
2022/01/05 12:35:44;;;;;;;;;;;;;;;-17.32;51.28;96480.03;6372381;27;20023;-63
2022/01/05 12:38:51;;;;;;;;;;;;;;;-17.41;52.22;96497.28;6372968;27;19923;-64
2022/01/05 12:41:53;;;;;;;;;;;;;;;-17.47;50.49;96504.59;6372176;27;19923;-63
2022/01/05 12:44:54;;;;;;;;;;;;;;;-17.58;50.44;96500.84;6354188;27;19924;-61
2022/01/05 12:47:55;;;;;;;;;;;;;;;-17.73;51.68;96496.09;6372250;27;19923;-63
2022/01/05 12:51:14;;;;;;;;;;;;;;;-17.80;50.75;96500.09;6372161;27;19930;-64
2022/01/05 12:54:19;;;;;;;;;;;;;;;-17.92;50.56;96514.66;6372471;27;19930;-63
2022/01/05 12:57:25;;;;;;;;;;;;;;;-18.02;50.45;96518.50;6372431;27;20352;-63
2022/01/05 13:00:28;;;;;;;;;;;;;;;-18.12;50.51;96514.75;6372441;27;19927;-64
2022/01/05 13:03:32;;;;;;;;;;;;;;;-18.21;50.78;96511.88;6372583;27;19928;-64
2022/01/05 13:06:33;;;;;;;;;;;;;;;-18.29;51.29;96515.72;6371390;27;19946;-63
2022/01/05 13:09:37;;;;;;;;;;;;;;;-18.36;51.20;96519.66;6371587;27;19927;-63
2022/01/05 13:12:39;;;;;;;;;;;;;;;-18.38;50.44;96527.91;6370971;27;19923;-63
2022/01/05 13:15:40;;;;;;;;;;;;;;;-18.48;50.14;96525.81;6371577;27;19923;-63
2022/01/05 13:18:49;;;;;;;;;;;;;;;-18.60;51.75;96529.53;6371972;27;19923;-64
2022/01/05 13:21:50;;;;;;;;;;;;;;;-18.65;51.55;96528.50;6371867;27;20269;-64
2022/01/05 13:25:10;;;;;;;;;;;;;;;-18.69;52.61;96531.66;6371584;27;19930;-63
2022/01/05 13:28:11;;;;;;;;;;;;;;;-18.72;52.22;96531.53;6371197;27;19931;-63
2022/01/05 13:31:12;;;;;;;;;;;;;;;-18.76;52.72;96531.38;6371959;27;20392;-64
2022/01/05 13:34:17;;;;;;;;;;;;;;;-18.79;52.49;96529.63;6371961;27;19923;-63
2022/01/05 13:37:26;;;;;;;;;;;;;;;-18.81;53.34;96536.22;6371239;27;19976;-63
2022/01/05 13:40:28;;;;;;;;;;;;;;;-18.83;52.12;96533.63;6372153;27;19923;-63
2022/01/05 13:43:29;;;;;;;;;;;;;;;-18.82;51.84;96539.50;6371568;27;19923;-64
2022/01/05 13:46:33;;;;;;;;;;;;;;;-18.85;50.93;96539.38;6371651;27;19923;-64
2022/01/05 13:49:36;;;;;;;;;;;;;;;-18.85;50.61;96544.38;6371653;27;20030;-63
2022/01/05 13:52:40;;;;;;;;;;;;;;;-18.89;50.68;96542.56;6371525;28;19924;-64
2022/01/05 13:55:42;;;;;;;;;;;;;;;-18.94;50.91;96549.03;6371056;28;19930;-64
2022/01/05 13:58:47;;;;;;;;;;;;;;;-18.99;52.34;96555.47;6370925;28;19926;-63
2022/01/05 14:01:58;;;;;;;;;;;;;;;-19.02;53.62;96548.69;6371232;28;19953;-63
2022/01/05 14:05:00;;;;;;;;;;;;;;;-19.04;54.88;96543.63;6370813;28;20410;-63
2022/01/05 14:08:04;;;;;;;;;;;;;;;-19.04;54.04;96553.66;6371559;28;19919;-64
2022/01/05 14:11:13;;;;;;;;;;;;;;;-19.04;55.08;96553.66;6370327;28;19924;-64
2022/01/05 14:14:14;;;;;;;;;;;;;;;-19.05;52.78;96553.56;6371567;28;19924;-64
2022/01/05 14:17:15;;;;;;;;;;;;;;;-19.11;53.27;96549.13;6370477;28;19929;-63
2022/01/05 14:20:17;;;;;;;;;;;;;;;-19.14;54.55;96554.03;6370711;28;20393;-63
2022/01/05 14:23:21;;;;;;;;;;;;;;;-19.14;55.50;96560.69;6370414;28;20308;-63
2022/01/05 14:26:28;;;;;;;;;;;;;;;-19.13;54.69;96558.28;6370891;28;19919;-63
2022/01/05 14:29:29;;;;;;;;;;;;;;;-19.11;54.11;96555.81;6370117;28;19929;-66
2022/01/05 14:32:33;;;;;;;;;;;;;;;-19.12;54.84;96561.63;6370187;28;20352;-63
2022/01/05 14:35:42;;;;;;;;;;;;;;;-19.12;56.25;96554.97;6371023;28;20017;-65
2022/01/05 14:38:55;;;;;;;;;;;;;;;-19.06;55.64;96567.75;6372633;27;19923;-63
2022/01/05 14:41:56;;;;;;;;;;;;;;;-19.01;56.10;96567.13;6375814;27;19927;-63
2022/01/05 14:45:00;;;;;;;;;;;;;;;-18.96;56.50;96570.66;6375822;27;20389;-63
2022/01/05 14:48:04;;;;;;;;;;;;;;;-18.86;56.13;96568.63;6375674;27;20482;-63
2022/01/05 14:51:05;;;;;;;;;;;;;;;-18.78;55.53;96579.00;6374929;27;19923;-66
2022/01/05 14:54:06;;;;;;;;;;;;;;;-18.69;55.18;96571.81;6375936;27;20311;-64
2022/01/05 14:57:09;;;;;;;;;;;;;;;-18.57;54.40;96584.91;6374996;27;20289;-64
2022/01/05 15:00:13;;;;;;;;;;;;;;;-18.53;53.42;96582.53;6375666;27;20404;-63
2022/01/05 15:03:14;;;;;;;;;;;;;;;-18.51;54.24;96588.44;6374899;27;19923;-65
2022/01/05 15:06:18;;;;;;;;;;;;;;;-18.30;52.65;96583.47;6374757;27;20007;-64
2022/01/05 15:09:19;;;;;;;;;;;;;;;-18.15;52.31;96586.59;6374291;27;20304;-63
2022/01/05 15:12:21;;;;;;;;;;;;;;;-17.99;53.40;96583.06;6374479;27;20407;-63
2022/01/05 15:15:22;;;;;;;;;;;;;;;-17.82;51.89;96591.28;6374385;27;19962;-63
2022/01/05 15:18:26;;;;;;;;;;;;;;;-17.72;51.37;96599.19;6375125;27;19927;-64
2022/01/05 15:21:27;;;;;;;;;;;;;;;-17.63;50.93;96592.81;6374949;27;20018;-63
2022/01/05 15:24:30;;;;;;;;;;;;;;;-17.57;51.43;96598.09;6374909;27;20035;-64
2022/01/05 15:27:34;;;;;;;;;;;;;;;-17.48;50.95;96605.97;6374975;27;19927;-63
2022/01/05 15:30:35;;;;;;;;;;;;;;;-17.46;50.75;96606.91;6374023;27;19930;-63
2022/01/05 15:33:39;;;;;;;;;;;;;;;-17.49;51.19;96601.72;6355599;27;19923;-64
2022/01/05 15:36:40;;;;;;;;;;;;;;;-17.48;51.53;96598.44;6370452;27;19923;-64
2022/01/05 15:39:41;;;;;;;;;;;;;;;-17.42;51.33;96596.16;6373816;27;20209;-64
2022/01/05 15:42:42;;;;;;;;;;;;;;;-17.34;51.75;96606.50;6373591;27;20324;-63
2022/01/05 15:45:43;;;;;;;;;;;;;;;-17.23;51.37;96606.13;6374177;27;19928;-64
2022/01/05 15:48:49;;;;;;;;;;;;;;;-17.13;51.18;96611.47;6374025;27;19934;-63
2022/01/05 15:51:50;;;;;;;;;;;;;;;-17.11;51.33;96599.81;6372480;27;19930;-63
2022/01/05 15:54:57;;;;;;;;;;;;;;;-17.08;51.26;96605.81;6373855;27;19950;-64